createdAt,value
2022-11-08T00:00:30.767Z,98.97
2022-11-08T00:01:30.824Z,99.11
2022-11-08T00:02:30.938Z,99.32
2022-11-08T00:03:30.754Z,99.43
2022-11-08T00:04:30.761Z,99.02
2022-11-08T00:05:30.727Z,98.91
2022-11-08T00:06:30.717Z,98.91
2022-11-08T00:07:30.719Z,99.06
2022-11-08T00:08:30.705Z,98.96
2022-11-08T00:09:30.724Z,99.47
2022-11-08T00:10:30.693Z,99.62
2022-11-08T00:11:30.683Z,99.62
2022-11-08T00:12:30.673Z,99.99
2022-11-08T00:13:30.667Z,99.99
2022-11-08T00:14:30.807Z,99.99
2022-11-08T00:15:30.644Z,99.82
2022-11-08T00:16:30.648Z,99.99
2022-11-08T00:17:30.636Z,99.99
2022-11-08T00:18:30.629Z,99.99
2022-11-08T00:19:30.641Z,99.99
2022-11-08T00:20:30.609Z,99.66
2022-11-08T00:21:30.610Z,99.46
2022-11-08T00:22:30.598Z,99.36
2022-11-08T00:23:30.602Z,99.51
2022-11-08T00:24:30.607Z,99.99
2022-11-08T00:25:30.581Z,99.99
2022-11-08T00:26:30.563Z,99.99
2022-11-08T00:27:30.553Z,99.99
2022-11-08T00:28:30.551Z,99.99
2022-11-08T00:29:30.563Z,99.99
2022-11-08T00:30:30.531Z,99.99
2022-11-08T00:31:30.530Z,99.99
2022-11-08T00:32:30.522Z,99.99
2022-11-08T00:33:30.517Z,99.99
2022-11-08T00:34:30.528Z,99.99
2022-11-08T00:35:30.496Z,99.99
2022-11-08T00:36:30.482Z,99.99
2022-11-08T00:37:30.489Z,99.99
2022-11-08T00:38:30.468Z,99.99
2022-11-08T00:39:30.485Z,99.99
2022-11-08T00:40:30.458Z,99.99
2022-11-08T00:41:30.456Z,99.99
2022-11-08T00:42:30.435Z,99.99
2022-11-08T00:43:30.435Z,99.99
2022-11-08T00:44:30.448Z,99.99
2022-11-08T00:45:30.426Z,99.99
2022-11-08T00:46:30.404Z,99.99
2022-11-08T00:47:30.402Z,99.99
2022-11-08T00:48:30.407Z,99.99
2022-11-08T00:49:30.414Z,99.99
2022-11-08T00:50:30.383Z,99.99
2022-11-08T00:51:30.368Z,99.99
2022-11-08T00:52:30.356Z,99.99
2022-11-08T00:53:30.354Z,99.99
2022-11-08T00:54:30.371Z,99.99
2022-11-08T00:55:30.337Z,99.99
2022-11-08T00:56:30.335Z,99.99
2022-11-08T00:57:53.577Z,99.99
2022-11-08T00:58:32.314Z,99.99
2022-11-08T00:59:30.365Z,99.99
2022-11-08T01:00:30.302Z,99.99
2022-11-08T01:01:30.435Z,99.99
2022-11-08T01:02:30.338Z,99.99
2022-11-08T01:03:30.287Z,99.99
2022-11-08T01:04:30.297Z,99.99
2022-11-08T01:05:30.265Z,99.99
2022-11-08T01:06:30.260Z,99.99
2022-11-08T01:07:30.252Z,99.99
2022-11-08T01:08:30.236Z,99.99
2022-11-08T01:09:30.262Z,99.99
2022-11-08T01:10:30.227Z,99.99
2022-11-08T01:11:30.213Z,99.99
2022-11-08T01:12:30.206Z,99.99
2022-11-08T01:13:30.192Z,99.99
2022-11-08T01:14:30.219Z,99.99
2022-11-08T01:15:30.291Z,99.99
2022-11-08T01:16:30.177Z,99.99
2022-11-08T01:17:30.169Z,99.99
2022-11-08T01:18:30.165Z,99.99
2022-11-08T01:19:30.171Z,99.99
2022-11-08T01:20:30.148Z,99.99
2022-11-08T01:21:30.135Z,99.99
2022-11-08T01:22:30.136Z,99.99
2022-11-08T01:23:30.124Z,99.99
2022-11-08T01:24:30.145Z,99.99
2022-11-08T01:25:30.127Z,99.99
2022-11-08T01:26:30.117Z,99.99
2022-11-08T01:27:30.090Z,99.99
2022-11-08T01:28:30.087Z,99.99
2022-11-08T01:29:30.104Z,99.99
2022-11-08T01:30:30.070Z,99.99
2022-11-08T01:31:30.060Z,99.99
2022-11-08T01:32:30.053Z,99.99
2022-11-08T01:33:30.045Z,99.99
2022-11-08T01:34:30.069Z,99.99
2022-11-08T01:35:30.032Z,99.99
2022-11-08T01:36:30.035Z,99.99
2022-11-08T01:37:30.018Z,99.99
2022-11-08T01:38:30.007Z,99.99
2022-11-08T01:39:30.031Z,99.99
2022-11-08T01:40:29.992Z,99.99
2022-11-08T01:41:29.975Z,99.99
2022-11-08T01:42:29.974Z,99.99
2022-11-08T01:43:29.968Z,99.99
2022-11-08T01:44:29.995Z,99.99
2022-11-08T01:45:29.953Z,99.99
2022-11-08T01:46:29.947Z,99.99
2022-11-08T01:47:29.937Z,99.99
2022-11-08T01:48:29.926Z,99.99
2022-11-08T01:49:29.920Z,99.99
2022-11-08T01:50:29.932Z,99.99
2022-11-08T01:51:29.903Z,99.99
2022-11-08T01:52:29.890Z,99.99
2022-11-08T01:53:29.887Z,99.99
2022-11-08T01:54:29.877Z,99.99
2022-11-08T01:55:29.891Z,99.99
2022-11-08T01:56:29.862Z,99.99
2022-11-08T01:57:29.853Z,99.99
2022-11-08T01:58:29.848Z,99.99
2022-11-08T01:59:29.839Z,99.99
2022-11-08T02:00:29.852Z,99.99
2022-11-08T02:01:29.943Z,99.99
2022-11-08T02:02:29.833Z,99.99
2022-11-08T02:03:29.802Z,99.99
2022-11-08T02:04:29.788Z,99.99
2022-11-08T02:05:30.815Z,99.99
2022-11-08T02:06:29.777Z,99.99
2022-11-08T02:07:29.775Z,99.99
2022-11-08T02:08:29.757Z,99.99
2022-11-08T02:09:29.768Z,99.99
2022-11-08T02:10:29.782Z,99.99
2022-11-08T02:11:29.745Z,99.99
2022-11-08T02:12:29.739Z,99.99
2022-11-08T02:13:29.730Z,99.99
2022-11-08T02:14:29.725Z,99.99
2022-11-08T02:15:29.744Z,99.99
2022-11-08T02:16:29.701Z,99.99
2022-11-08T02:17:29.704Z,99.99
2022-11-08T02:18:29.688Z,99.99
2022-11-08T02:19:29.686Z,99.99
2022-11-08T02:20:29.702Z,99.99
2022-11-08T02:21:29.666Z,99.99
2022-11-08T02:22:29.659Z,99.99
2022-11-08T02:23:29.660Z,99.99
2022-11-08T02:24:29.646Z,99.99
2022-11-08T02:25:29.661Z,99.99
2022-11-08T02:26:29.630Z,99.99
2022-11-08T02:27:29.619Z,99.99
2022-11-08T02:28:29.611Z,99.99
2022-11-08T02:29:29.606Z,99.99
2022-11-08T02:30:29.623Z,99.99
2022-11-08T02:31:29.593Z,99.99
2022-11-08T02:32:29.588Z,99.99
2022-11-08T02:33:29.573Z,99.99
2022-11-08T02:34:29.574Z,99.99
2022-11-08T02:35:29.585Z,99.99
2022-11-08T02:36:29.550Z,99.99
2022-11-08T02:37:29.542Z,99.99
2022-11-08T02:38:29.535Z,99.99
2022-11-08T02:39:29.530Z,99.99
2022-11-08T02:40:29.547Z,99.99
2022-11-08T02:41:29.514Z,99.99
2022-11-08T02:42:29.503Z,99.99
2022-11-08T02:43:29.500Z,99.99
2022-11-08T02:44:29.490Z,99.99
2022-11-08T02:45:29.499Z,99.99
2022-11-08T02:46:29.481Z,99.99
2022-11-08T02:47:29.466Z,99.99
2022-11-08T02:48:29.453Z,99.99
2022-11-08T02:49:29.455Z,99.99
2022-11-08T02:50:29.467Z,99.99
2022-11-08T02:51:29.438Z,99.99
2022-11-08T02:52:29.424Z,99.99
2022-11-08T02:53:29.418Z,99.99
2022-11-08T02:54:29.423Z,99.99
2022-11-08T02:55:29.432Z,99.99
2022-11-08T02:56:29.392Z,99.99
2022-11-08T02:57:29.387Z,99.99
2022-11-08T02:58:29.379Z,99.99
2022-11-08T02:59:29.368Z,99.99
2022-11-08T03:00:29.386Z,99.99
2022-11-08T03:01:29.441Z,99.99
2022-11-08T03:02:29.390Z,99.99
2022-11-08T03:03:29.336Z,99.99
2022-11-08T03:04:30.338Z,99.99
2022-11-08T03:05:29.354Z,99.99
2022-11-08T03:06:29.320Z,99.99
2022-11-08T03:07:29.309Z,99.99
2022-11-08T03:08:29.295Z,99.99
2022-11-08T03:09:29.294Z,99.99
2022-11-08T03:10:29.401Z,99.99
2022-11-08T03:11:29.292Z,99.99
2022-11-08T03:12:29.265Z,99.99
2022-11-08T03:13:29.252Z,99.99
2022-11-08T03:14:29.255Z,99.99
2022-11-08T03:15:29.275Z,99.99
2022-11-08T03:16:29.238Z,99.99
2022-11-08T03:17:29.234Z,99.99
2022-11-08T03:18:29.232Z,99.99
2022-11-08T03:19:29.233Z,99.99
2022-11-08T03:20:32.701Z,99.99
2022-11-08T03:21:30.199Z,99.99
2022-11-08T03:22:29.190Z,99.99
2022-11-08T03:23:29.183Z,99.99
2022-11-08T03:24:29.174Z,99.99
2022-11-08T03:25:29.219Z,99.99
2022-11-08T03:26:29.150Z,99.99
2022-11-08T03:27:29.148Z,99.99
2022-11-08T03:28:29.468Z,99.99
2022-11-08T03:29:29.134Z,99.99
2022-11-08T03:30:29.155Z,99.99
2022-11-08T03:31:29.117Z,99.99
2022-11-08T03:32:29.111Z,99.99
2022-11-08T03:33:29.104Z,99.99
2022-11-08T03:34:29.094Z,99.99
2022-11-08T03:35:29.087Z,99.99
2022-11-08T03:36:29.105Z,99.99
2022-11-08T03:37:29.075Z,99.99
2022-11-08T03:38:29.063Z,99.99
2022-11-08T03:39:29.056Z,99.99
2022-11-08T03:40:29.038Z,99.99
2022-11-08T03:41:29.059Z,99.99
2022-11-08T03:42:29.031Z,99.99
2022-11-08T03:43:29.024Z,99.99
2022-11-08T03:44:29.015Z,99.99
2022-11-08T03:45:29.006Z,99.99
2022-11-08T03:46:29.023Z,99.99
2022-11-08T03:47:28.991Z,99.99
2022-11-08T03:48:28.985Z,99.99
2022-11-08T03:49:28.982Z,99.99
2022-11-08T03:50:28.973Z,99.99
2022-11-08T03:51:28.984Z,99.99
2022-11-08T03:52:28.952Z,99.99
2022-11-08T03:53:28.946Z,99.99
2022-11-08T03:54:28.937Z,99.99
2022-11-08T03:55:28.933Z,99.99
2022-11-08T03:56:28.945Z,99.99
2022-11-08T03:57:28.913Z,99.99
2022-11-08T03:58:29.031Z,99.99
2022-11-08T03:59:28.900Z,99.99
2022-11-08T04:00:28.888Z,99.99
2022-11-08T04:01:28.970Z,99.99
2022-11-08T04:02:28.930Z,99.99
2022-11-08T04:03:28.867Z,99.99
2022-11-08T04:04:28.858Z,99.99
2022-11-08T04:05:28.854Z,99.99
2022-11-08T04:06:28.860Z,99.99
2022-11-08T04:07:28.837Z,99.99
2022-11-08T04:08:28.823Z,99.99
2022-11-08T04:09:28.824Z,99.99
2022-11-08T04:10:28.800Z,99.99
2022-11-08T04:11:28.821Z,99.99
2022-11-08T04:12:28.791Z,99.99
2022-11-08T04:13:28.795Z,99.99
2022-11-08T04:14:28.774Z,99.99
2022-11-08T04:15:28.772Z,99.99
2022-11-08T04:16:28.839Z,99.99
2022-11-08T04:17:28.763Z,99.99
2022-11-08T04:18:28.748Z,99.99
2022-11-08T04:19:28.740Z,99.99
2022-11-08T04:20:28.731Z,99.99
2022-11-08T04:21:28.752Z,99.99
2022-11-08T04:22:28.713Z,99.99
2022-11-08T04:23:28.715Z,99.99
2022-11-08T04:24:28.698Z,99.99
2022-11-08T04:25:33.940Z,99.99
2022-11-08T04:26:30.716Z,99.99
2022-11-08T04:27:28.674Z,99.99
2022-11-08T04:28:28.672Z,99.99
2022-11-08T04:29:28.667Z,99.99
2022-11-08T04:30:28.656Z,99.99
2022-11-08T04:31:28.675Z,99.99
2022-11-08T04:32:28.638Z,99.99
2022-11-08T04:33:28.637Z,99.99
2022-11-08T04:34:28.621Z,99.99
2022-11-08T04:35:28.617Z,99.99
2022-11-08T04:36:28.644Z,99.99
2022-11-08T04:37:28.594Z,99.99
2022-11-08T04:38:28.593Z,99.99
2022-11-08T04:39:28.586Z,99.99
2022-11-08T04:40:28.577Z,99.99
2022-11-08T04:41:28.591Z,99.99
2022-11-08T04:42:28.552Z,99.99
2022-11-08T04:43:29.546Z,99.99
2022-11-08T04:44:28.544Z,99.99
2022-11-08T04:45:28.524Z,99.99
2022-11-08T04:46:28.550Z,99.99
2022-11-08T04:47:28.509Z,99.99
2022-11-08T04:48:28.512Z,99.99
2022-11-08T04:49:28.507Z,99.99
2022-11-08T04:50:28.493Z,99.99
2022-11-08T04:51:28.519Z,99.99
2022-11-08T04:52:28.483Z,99.99
2022-11-08T04:53:28.468Z,99.99
2022-11-08T04:54:28.464Z,99.99
2022-11-08T04:55:28.455Z,99.99
2022-11-08T04:56:28.469Z,99.99
2022-11-08T04:57:28.438Z,99.99
2022-11-08T04:58:28.434Z,99.99
2022-11-08T04:59:28.423Z,99.99
2022-11-08T05:00:28.414Z,99.99
2022-11-08T05:01:28.585Z,99.99
2022-11-08T05:02:28.541Z,99.99
2022-11-08T05:03:28.387Z,99.99
2022-11-08T05:04:28.380Z,99.99
2022-11-08T05:05:28.374Z,99.99
2022-11-08T05:06:28.383Z,99.99
2022-11-08T05:07:28.358Z,99.99
2022-11-08T05:08:28.346Z,99.99
2022-11-08T05:09:28.338Z,99.99
2022-11-08T05:10:28.330Z,99.99
2022-11-08T05:11:28.351Z,99.99
2022-11-08T05:12:28.314Z,99.99
2022-11-08T05:13:28.308Z,99.99
2022-11-08T05:14:28.304Z,99.99
2022-11-08T05:15:28.288Z,99.99
2022-11-08T05:16:28.319Z,99.99
2022-11-08T05:17:28.279Z,99.99
2022-11-08T05:18:28.542Z,99.99
2022-11-08T05:19:28.263Z,99.99
2022-11-08T05:20:28.257Z,99.99
2022-11-08T05:21:28.249Z,99.99
2022-11-08T05:22:28.262Z,99.99
2022-11-08T05:23:28.235Z,99.99
2022-11-08T05:24:28.214Z,99.99
2022-11-08T05:25:28.208Z,99.99
2022-11-08T05:26:28.204Z,99.99
2022-11-08T05:27:28.224Z,99.99
2022-11-08T05:28:28.190Z,99.99
2022-11-08T05:29:28.178Z,99.99
2022-11-08T05:30:28.169Z,99.99
2022-11-08T05:31:28.161Z,99.99
2022-11-08T05:32:28.180Z,99.99
2022-11-08T05:33:28.154Z,99.99
2022-11-08T05:34:28.138Z,99.99
2022-11-08T05:35:28.129Z,99.99
2022-11-08T05:36:28.136Z,99.99
2022-11-08T05:37:28.142Z,99.99
2022-11-08T05:38:28.103Z,99.99
2022-11-08T05:39:31.868Z,99.99
2022-11-08T05:40:33.166Z,99.99
2022-11-08T05:41:29.080Z,99.99
2022-11-08T05:42:28.099Z,99.99
2022-11-08T05:43:28.065Z,99.99
2022-11-08T05:44:28.055Z,99.99
2022-11-08T05:45:28.048Z,99.99
2022-11-08T05:46:28.043Z,99.99
2022-11-08T05:47:28.058Z,99.99
2022-11-08T05:48:28.027Z,99.99
2022-11-08T05:49:28.019Z,99.99
2022-11-08T05:50:28.011Z,99.99
2022-11-08T05:51:28.001Z,99.99
2022-11-08T05:52:28.017Z,99.99
2022-11-08T05:53:27.985Z,99.99
2022-11-08T05:54:27.981Z,99.99
2022-11-08T05:55:27.970Z,99.99
2022-11-08T05:56:27.963Z,99.99
2022-11-08T05:57:27.980Z,99.99
2022-11-08T05:58:27.951Z,99.99
2022-11-08T05:59:27.942Z,99.99
2022-11-08T06:00:27.939Z,99.99
2022-11-08T06:01:27.985Z,99.99
2022-11-08T06:02:29.049Z,99.99
2022-11-08T06:03:28.287Z,99.99
2022-11-08T06:04:27.899Z,99.99
2022-11-08T06:05:27.892Z,99.99
2022-11-08T06:06:27.883Z,99.99
2022-11-08T06:07:27.899Z,99.99
2022-11-08T06:08:27.865Z,99.99
2022-11-08T06:09:27.872Z,99.99
2022-11-08T06:10:27.849Z,99.99
2022-11-08T06:11:27.844Z,99.99
2022-11-08T06:12:27.863Z,99.99
2022-11-08T06:13:28.230Z,99.99
2022-11-08T06:14:27.818Z,99.99
2022-11-08T06:15:27.807Z,99.99
2022-11-08T06:16:27.803Z,99.99
2022-11-08T06:17:30.227Z,99.99
2022-11-08T06:18:28.790Z,99.99
2022-11-08T06:19:27.781Z,99.99
2022-11-08T06:20:27.778Z,99.99
2022-11-08T06:21:27.764Z,99.99
2022-11-08T06:22:27.780Z,99.99
2022-11-08T06:23:27.746Z,99.99
2022-11-08T06:24:27.736Z,99.99
2022-11-08T06:25:27.732Z,99.99
2022-11-08T06:26:27.722Z,99.99
2022-11-08T06:27:27.745Z,99.99
2022-11-08T06:28:27.706Z,99.99
2022-11-08T06:29:27.701Z,99.99
2022-11-08T06:30:27.685Z,99.99
2022-11-08T06:31:27.681Z,99.99
2022-11-08T06:32:27.702Z,99.99
2022-11-08T06:33:27.662Z,99.99
2022-11-08T06:34:27.650Z,99.99
2022-11-08T06:35:27.643Z,99.99
2022-11-08T06:36:27.640Z,99.99
2022-11-08T06:37:27.632Z,99.99
2022-11-08T06:38:27.649Z,99.99
2022-11-08T06:39:27.614Z,99.99
2022-11-08T06:40:27.608Z,99.99
2022-11-08T06:41:27.600Z,99.99
2022-11-08T06:42:27.592Z,99.99
2022-11-08T06:43:28.068Z,99.99
2022-11-08T06:44:27.571Z,99.99
2022-11-08T06:45:27.568Z,99.99
2022-11-08T06:46:27.559Z,99.99
2022-11-08T06:47:27.571Z,99.99
2022-11-08T06:48:32.360Z,99.99
2022-11-08T06:49:29.533Z,99.99
2022-11-08T06:50:27.526Z,99.99
2022-11-08T06:51:27.521Z,99.99
2022-11-08T06:52:27.537Z,99.99
2022-11-08T06:53:27.510Z,99.99
2022-11-08T06:54:27.497Z,99.99
2022-11-08T06:55:27.519Z,99.99
2022-11-08T06:56:27.488Z,99.99
2022-11-08T06:57:27.508Z,99.99
2022-11-08T06:58:27.472Z,99.99
2022-11-08T06:59:27.460Z,99.99
2022-11-08T07:00:27.451Z,99.99
2022-11-08T07:01:27.585Z,99.99
2022-11-08T07:02:27.608Z,99.99
2022-11-08T07:03:27.424Z,99.99
2022-11-08T07:04:27.419Z,99.99
2022-11-08T07:05:27.413Z,99.99
2022-11-08T07:06:27.406Z,99.99
2022-11-08T07:07:27.417Z,99.99
2022-11-08T07:08:27.393Z,99.99
2022-11-08T07:09:27.375Z,99.99
2022-11-08T07:10:27.354Z,99.99
2022-11-08T07:11:28.360Z,99.99
2022-11-08T07:12:27.374Z,99.99
2022-11-08T07:13:28.342Z,99.99
2022-11-08T07:14:27.361Z,99.99
2022-11-08T07:15:27.330Z,99.99
2022-11-08T07:16:27.320Z,99.99
2022-11-08T07:17:27.347Z,99.99
2022-11-08T07:18:27.420Z,99.99
2022-11-08T07:19:27.307Z,99.99
2022-11-08T07:20:27.315Z,99.85
2022-11-08T07:21:27.283Z,99.08
2022-11-08T07:22:27.282Z,99.04
2022-11-08T07:23:27.313Z,98.68
2022-11-08T07:24:27.261Z,97.65
2022-11-08T07:25:27.250Z,97.40
2022-11-08T07:26:27.243Z,96.58
2022-11-08T07:27:27.237Z,94.54
2022-11-08T07:28:27.260Z,94.30
2022-11-08T07:29:27.220Z,94.42
2022-11-08T07:30:27.211Z,91.28
2022-11-08T07:31:27.208Z,91.47
2022-11-08T07:32:27.213Z,91.53
2022-11-08T07:33:27.214Z,92.16
2022-11-08T07:34:27.181Z,91.14
2022-11-08T07:35:27.176Z,91.20
2022-11-08T07:36:27.168Z,90.52
2022-11-08T07:37:27.156Z,90.52
2022-11-08T07:38:27.178Z,90.17
2022-11-08T07:39:27.140Z,90.17
2022-11-08T07:40:27.139Z,89.76
2022-11-08T07:41:27.138Z,89.31
2022-11-08T07:42:38.407Z,89.47
2022-11-08T07:43:29.495Z,88.47
2022-11-08T07:44:27.102Z,86.71
2022-11-08T07:45:27.096Z,84.98
2022-11-08T07:46:27.087Z,84.98
2022-11-08T07:47:27.074Z,86.26
2022-11-08T07:48:27.095Z,84.04
2022-11-08T07:49:27.060Z,81.76
2022-11-08T07:50:27.091Z,81.72
2022-11-08T07:51:27.042Z,80.99
2022-11-08T07:52:27.036Z,80.55
2022-11-08T07:53:27.054Z,78.92
2022-11-08T07:54:27.013Z,78.21
2022-11-08T07:55:27.013Z,78.69
2022-11-08T07:56:26.998Z,79.95
2022-11-08T07:57:26.996Z,79.75
2022-11-08T07:58:27.013Z,79.98
2022-11-08T07:59:26.981Z,78.58
2022-11-08T08:00:27.029Z,77.87
2022-11-08T08:01:27.048Z,77.63
2022-11-08T08:02:27.000Z,78.34
2022-11-08T08:03:27.003Z,77.53
2022-11-08T08:04:26.940Z,76.51
2022-11-08T08:05:26.934Z,76.82
2022-11-08T08:06:26.934Z,78.44
2022-11-08T08:07:26.919Z,77.43
2022-11-08T08:08:26.936Z,78.20
2022-11-08T08:09:26.903Z,78.00
2022-11-08T08:10:26.949Z,76.51
2022-11-08T08:11:32.376Z,76.75
2022-11-08T08:12:28.888Z,76.44
2022-11-08T08:13:26.915Z,77.36
2022-11-08T08:14:26.865Z,76.14
2022-11-08T08:15:26.878Z,76.14
2022-11-08T08:16:26.851Z,76.51
2022-11-08T08:17:26.849Z,76.40
2022-11-08T08:18:26.832Z,76.20
2022-11-08T08:19:26.848Z,76.91
2022-11-08T08:20:26.878Z,75.66
2022-11-08T08:21:26.810Z,75.05
2022-11-08T08:22:26.803Z,74.10
2022-11-08T08:23:26.791Z,74.10
2022-11-08T08:24:26.810Z,73.09
2022-11-08T08:25:26.779Z,75.39
2022-11-08T08:26:26.771Z,75.43
2022-11-08T08:27:26.760Z,76.01
2022-11-08T08:28:26.752Z,76.75
2022-11-08T08:29:26.771Z,79.14
2022-11-08T08:30:26.983Z,80.74
2022-11-08T08:31:26.724Z,81.96
2022-11-08T08:32:31.308Z,82.69
2022-11-08T08:33:29.047Z,85.14
2022-11-08T08:34:28.729Z,84.53
2022-11-08T08:35:26.741Z,85.00
2022-11-08T08:36:26.688Z,82.47
2022-11-08T08:37:26.676Z,81.88
2022-11-08T08:38:26.666Z,80.99
2022-11-08T08:39:26.687Z,79.53
2022-11-08T08:40:26.778Z,79.09
2022-11-08T08:41:26.644Z,79.29
2022-11-08T08:42:26.641Z,79.86
2022-11-08T08:43:26.627Z,79.36
2022-11-08T08:44:26.645Z,79.39
2022-11-08T08:45:26.623Z,80.68
2022-11-08T08:46:26.604Z,80.62
2022-11-08T08:47:26.618Z,80.00
2022-11-08T08:48:26.586Z,79.84
2022-11-08T08:49:26.630Z,79.86
2022-11-08T08:50:26.665Z,79.72
2022-11-08T08:51:26.562Z,79.18
2022-11-08T08:52:26.552Z,79.42
2022-11-08T08:53:26.561Z,78.64
2022-11-08T08:54:29.441Z,78.53
2022-11-08T08:55:27.573Z,77.83
2022-11-08T08:56:26.523Z,78.70
2022-11-08T08:57:26.516Z,77.86
2022-11-08T08:58:26.507Z,77.75
2022-11-08T09:01:43.808Z,76.46
2022-11-08T09:02:28.475Z,77.89
2022-11-08T09:03:26.468Z,80.33
2022-11-08T09:04:26.483Z,82.28
2022-11-08T09:05:26.452Z,85.00
2022-11-08T09:06:26.451Z,86.00
2022-11-08T09:07:26.437Z,87.47
2022-11-08T09:08:26.430Z,88.59
2022-11-08T09:09:26.449Z,89.25
2022-11-08T09:10:26.420Z,89.34
2022-11-08T09:11:26.425Z,89.45
2022-11-08T09:12:26.406Z,88.93
2022-11-08T09:13:26.393Z,88.93
2022-11-08T09:14:26.405Z,89.12
2022-11-08T09:15:26.381Z,89.59
2022-11-08T09:16:26.369Z,90.10
2022-11-08T09:17:26.375Z,89.49
2022-11-08T09:18:26.429Z,88.73
2022-11-08T09:19:26.372Z,88.55
2022-11-08T09:20:26.355Z,86.39
2022-11-08T09:21:26.333Z,84.52
2022-11-08T09:22:26.332Z,84.62
2022-11-08T09:23:26.317Z,85.27
2022-11-08T09:24:26.327Z,85.06
2022-11-08T09:25:26.295Z,85.03
2022-11-08T09:26:26.289Z,83.70
2022-11-08T09:27:26.282Z,84.52
2022-11-08T09:28:31.037Z,83.12
2022-11-08T09:29:28.294Z,82.26
2022-11-08T09:30:26.259Z,81.48
2022-11-08T09:31:26.255Z,80.63
2022-11-08T09:32:39.588Z,79.61
2022-11-08T09:33:28.236Z,78.97
2022-11-08T09:34:27.261Z,79.03
2022-11-08T09:35:26.222Z,78.33
2022-11-08T09:36:26.221Z,78.53
2022-11-08T09:37:26.208Z,79.11
2022-11-08T09:38:26.198Z,79.85
2022-11-08T09:39:26.222Z,80.87
2022-11-08T09:40:26.177Z,79.72
2022-11-08T09:41:27.183Z,80.87
2022-11-08T09:42:26.173Z,80.46
2022-11-08T09:43:26.160Z,79.14
2022-11-08T09:44:26.189Z,79.17
2022-11-08T09:45:26.146Z,78.53
2022-11-08T09:46:26.136Z,77.84
2022-11-08T09:47:26.132Z,77.20
2022-11-08T09:48:26.128Z,75.82
2022-11-08T09:49:26.143Z,75.38
2022-11-08T09:50:26.103Z,75.68
2022-11-08T09:51:26.102Z,75.28
2022-11-08T09:52:26.091Z,75.65
2022-11-08T09:53:26.080Z,74.74
2022-11-08T09:54:26.094Z,74.54
2022-11-08T09:55:26.063Z,74.94
2022-11-08T09:56:26.063Z,74.57
2022-11-08T09:57:26.054Z,73.83
2022-11-08T09:58:26.043Z,73.83
2022-11-08T09:59:26.063Z,75.31
2022-11-08T10:00:26.027Z,75.61
2022-11-08T10:01:27.469Z,74.70
2022-11-08T10:02:27.063Z,74.80
2022-11-08T10:03:26.000Z,74.70
2022-11-08T10:04:26.029Z,74.70
2022-11-08T10:05:26.021Z,75.31
2022-11-08T10:06:25.994Z,74.37
2022-11-08T10:07:26.026Z,75.10
2022-11-08T10:08:25.962Z,73.79
2022-11-08T10:09:25.980Z,71.94
2022-11-08T10:10:25.947Z,71.80
2022-11-08T10:11:25.939Z,71.91
2022-11-08T10:12:25.929Z,72.07
2022-11-08T10:13:25.921Z,71.30
2022-11-08T10:14:25.947Z,72.54
2022-11-08T10:15:25.911Z,73.96
2022-11-08T10:16:25.900Z,72.48
2022-11-08T10:17:25.891Z,73.38
2022-11-08T10:18:25.883Z,73.79
2022-11-08T10:19:25.915Z,72.68
2022-11-08T10:20:25.866Z,72.68
2022-11-08T10:21:25.856Z,73.72
2022-11-08T10:22:25.854Z,72.61
2022-11-08T10:23:25.846Z,72.85
2022-11-08T10:24:25.834Z,73.96
2022-11-08T10:25:25.853Z,74.46
2022-11-08T10:26:27.174Z,73.75
2022-11-08T10:27:26.805Z,72.75
2022-11-08T10:28:25.801Z,73.15
2022-11-08T10:29:25.796Z,73.99
2022-11-08T10:30:25.811Z,73.93
2022-11-08T10:31:25.779Z,75.14
2022-11-08T10:32:25.767Z,75.61
2022-11-08T10:33:25.758Z,75.81
2022-11-08T10:34:25.744Z,74.80
2022-11-08T10:35:26.772Z,75.01
2022-11-08T10:36:25.741Z,74.10
2022-11-08T10:37:25.879Z,73.96
2022-11-08T10:38:25.723Z,75.07
2022-11-08T10:39:25.716Z,73.86
2022-11-08T10:40:25.732Z,73.82
2022-11-08T10:41:25.703Z,72.75
2022-11-08T10:42:25.697Z,73.86
2022-11-08T10:43:25.688Z,73.96
2022-11-08T10:44:25.686Z,73.66
2022-11-08T10:45:25.697Z,73.46
2022-11-08T10:46:25.662Z,72.95
2022-11-08T10:47:25.652Z,72.64
2022-11-08T10:48:25.645Z,72.81
2022-11-08T10:49:25.642Z,71.87
2022-11-08T10:50:25.653Z,71.37
2022-11-08T10:51:25.631Z,71.06
2022-11-08T10:52:25.616Z,71.06
2022-11-08T10:53:25.614Z,70.79
2022-11-08T10:54:25.605Z,70.96
2022-11-08T10:55:25.622Z,71.40
2022-11-08T10:56:25.582Z,70.59
2022-11-08T10:57:25.595Z,71.03
2022-11-08T10:58:25.573Z,71.91
2022-11-08T10:59:25.568Z,71.13
2022-11-08T11:00:25.582Z,70.83
2022-11-08T11:01:25.594Z,70.22
2022-11-08T11:02:25.661Z,71.03
2022-11-08T11:03:25.539Z,70.53
2022-11-08T11:04:25.525Z,70.53
2022-11-08T11:05:25.546Z,71.23
2022-11-08T11:06:25.630Z,70.56
2022-11-08T11:07:25.506Z,70.86
2022-11-08T11:08:25.495Z,71.06
2022-11-08T11:09:25.490Z,70.96
2022-11-08T11:10:25.505Z,71.60
2022-11-08T11:11:25.479Z,71.70
2022-11-08T11:12:25.468Z,72.31
2022-11-08T11:13:25.459Z,71.33
2022-11-08T11:14:25.453Z,71.94
2022-11-08T11:15:25.469Z,72.28
2022-11-08T11:16:25.434Z,71.16
2022-11-08T11:17:25.430Z,72.68
2022-11-08T11:18:25.422Z,71.97
2022-11-08T11:19:25.419Z,71.67
2022-11-08T11:20:25.434Z,72.01
2022-11-08T11:21:25.568Z,73.02
2022-11-08T11:22:25.390Z,72.92
2022-11-08T11:23:25.382Z,73.69
2022-11-08T11:24:25.375Z,73.02
2022-11-08T11:25:25.394Z,73.12
2022-11-08T11:26:25.359Z,73.90
2022-11-08T11:27:25.356Z,74.40
2022-11-08T11:28:25.341Z,74.51
2022-11-08T11:29:26.334Z,74.24
2022-11-08T11:30:25.417Z,75.21
2022-11-08T11:31:25.321Z,75.15
2022-11-08T11:32:25.317Z,74.04
2022-11-08T11:33:25.384Z,74.24
2022-11-08T11:34:25.301Z,74.33
2022-11-08T11:35:25.318Z,74.84
2022-11-08T11:36:25.565Z,74.24
2022-11-08T11:37:25.274Z,74.33
2022-11-08T11:38:25.266Z,74.13
2022-11-08T11:39:25.259Z,74.13
2022-11-08T11:40:25.280Z,74.24
2022-11-08T11:41:25.294Z,74.91
2022-11-08T11:42:44.315Z,72.68
2022-11-08T11:43:27.229Z,72.88
2022-11-08T11:44:25.227Z,72.88
2022-11-08T11:45:25.242Z,72.04
2022-11-08T11:46:25.229Z,72.65
2022-11-08T11:47:25.199Z,72.65
2022-11-08T11:48:25.200Z,72.44
2022-11-08T11:49:25.181Z,72.14
2022-11-08T11:50:25.205Z,72.34
2022-11-08T11:51:25.217Z,72.75
2022-11-08T11:52:25.161Z,73.15
2022-11-08T11:53:25.148Z,71.13
2022-11-08T11:54:25.142Z,71.94
2022-11-08T11:55:25.173Z,71.30
2022-11-08T11:56:25.140Z,71.80
2022-11-08T11:57:25.117Z,71.50
2022-11-08T11:58:25.117Z,70.79
2022-11-08T11:59:25.101Z,70.69
2022-11-08T12:00:25.129Z,70.29
2022-11-08T12:01:25.088Z,70.79
2022-11-08T12:02:25.129Z,70.05
2022-11-08T12:03:25.073Z,71.17
2022-11-08T12:04:25.064Z,70.96
2022-11-08T12:05:25.057Z,70.86
2022-11-08T12:06:25.072Z,70.36
2022-11-08T12:07:26.154Z,69.95
2022-11-08T12:08:25.043Z,71.26
2022-11-08T12:09:25.026Z,70.62
2022-11-08T12:10:25.017Z,70.56
2022-11-08T12:11:25.034Z,70.05
2022-11-08T12:12:26.002Z,68.40
2022-11-08T12:13:25.080Z,69.51
2022-11-08T12:14:24.990Z,69.92
2022-11-08T12:15:24.985Z,69.08
2022-11-08T12:16:24.994Z,68.17
2022-11-08T12:17:24.960Z,69.48
2022-11-08T12:18:41.484Z,68.07
2022-11-08T12:19:26.947Z,69.11
2022-11-08T12:20:27.297Z,68.51
2022-11-08T12:21:25.956Z,66.96
2022-11-08T12:22:24.923Z,67.66
2022-11-08T12:23:24.971Z,66.65
2022-11-08T12:24:24.905Z,66.86
2022-11-08T12:25:24.894Z,68.77
2022-11-08T12:26:24.912Z,67.97
2022-11-08T12:27:24.882Z,67.66
2022-11-08T12:28:24.877Z,67.86
2022-11-08T12:29:24.873Z,67.73
2022-11-08T12:30:24.857Z,66.72
2022-11-08T12:31:24.876Z,66.62
2022-11-08T12:32:24.842Z,66.65
2022-11-08T12:33:24.832Z,68.20
2022-11-08T12:34:24.825Z,67.72
2022-11-08T12:35:24.833Z,67.05
2022-11-08T12:36:24.840Z,67.66
2022-11-08T12:37:24.810Z,68.57
2022-11-08T12:38:24.797Z,68.97
2022-11-08T12:39:24.785Z,68.87
2022-11-08T12:40:24.779Z,68.26
2022-11-08T12:41:24.790Z,69.34
2022-11-08T12:42:24.760Z,69.24
2022-11-08T12:43:24.818Z,68.54
2022-11-08T12:44:24.742Z,69.04
2022-11-08T12:45:24.869Z,67.49
2022-11-08T12:46:24.753Z,68.33
2022-11-08T12:47:24.718Z,66.41
2022-11-08T12:48:24.713Z,66.92
2022-11-08T12:49:24.703Z,68.13
2022-11-08T12:50:24.700Z,68.20
2022-11-08T12:51:24.726Z,68.87
2022-11-08T12:52:24.679Z,68.87
2022-11-08T12:53:24.670Z,66.55
2022-11-08T12:54:24.661Z,67.33